createdAt,value
2015-07-20T00:00:11.142Z,74274
2015-07-20T00:00:23.517Z,74272
2015-07-20T00:00:35.864Z,74275
2015-07-20T00:00:48.207Z,74271
2015-07-20T00:01:00.535Z,74272
2015-07-20T00:01:12.864Z,74272
2015-07-20T00:01:25.223Z,74273
2015-07-20T00:01:37.553Z,74278
2015-07-20T00:01:49.881Z,74278
2015-07-20T00:02:02.225Z,74275
2015-07-20T00:02:14.569Z,74276
2015-07-20T00:02:26.912Z,74278
2015-07-20T00:02:39.257Z,74279
2015-07-20T00:02:51.585Z,74279
2015-07-20T00:03:03.929Z,74279
2015-07-20T00:03:16.273Z,74275
2015-07-20T00:03:28.882Z,74276
2015-07-20T00:03:41.229Z,74278
2015-07-20T00:03:52.854Z,74274
2015-07-20T00:04:05.229Z,74274
2015-07-20T00:04:17.573Z,74279
2015-07-20T00:04:29.791Z,74277
2015-07-20T00:04:42.136Z,74273
2015-07-20T00:04:54.511Z,74275
2015-07-20T00:05:06.886Z,74277
2015-07-20T00:05:19.246Z,74279
2015-07-20T00:05:31.589Z,74277
2015-07-20T00:05:43.983Z,74275
2015-07-20T00:05:56.342Z,74274
2015-07-20T00:06:08.702Z,74276
2015-07-20T00:06:21.030Z,74276
2015-07-20T00:06:33.374Z,74278
2015-07-20T00:06:45.703Z,74274
2015-07-20T00:06:58.062Z,74272
2015-07-20T00:07:10.390Z,74272
2015-07-20T00:07:22.734Z,74269
2015-07-20T00:07:35.078Z,74270
2015-07-20T00:07:47.409Z,74271
2015-07-20T00:07:59.753Z,74270
2015-07-20T00:08:12.096Z,74270
2015-07-20T00:08:24.440Z,74274
2015-07-20T00:08:36.784Z,74272
2015-07-20T00:08:49.129Z,74276
2015-07-20T00:09:01.457Z,74270
2015-07-20T00:09:13.800Z,74269
2015-07-20T00:09:26.129Z,74273
2015-07-20T00:09:38.472Z,74271
2015-07-20T00:09:50.834Z,74275
2015-07-20T00:10:03.177Z,74273
2015-07-20T00:10:15.537Z,74276
2015-07-20T00:10:27.193Z,74279
2015-07-20T00:10:39.568Z,74276
2015-07-20T00:10:51.945Z,74275
2015-07-20T00:11:04.320Z,74271
2015-07-20T00:11:16.679Z,74274
2015-07-20T00:11:29.039Z,74274
2015-07-20T00:11:41.398Z,74276
2015-07-20T00:11:53.760Z,74275
2015-07-20T00:12:06.103Z,74269
2015-07-20T00:12:18.431Z,74271
2015-07-20T00:12:30.775Z,74272
2015-07-20T00:12:43.103Z,74274
2015-07-20T00:12:55.449Z,74277
2015-07-20T00:13:07.777Z,74275
2015-07-20T00:13:20.105Z,74274
2015-07-20T00:13:32.449Z,74277
2015-07-20T00:13:44.808Z,74278
2015-07-20T00:13:57.154Z,74281
2015-07-20T00:14:09.482Z,74279
2015-07-20T00:14:21.826Z,74275
2015-07-20T00:14:34.170Z,74282
2015-07-20T00:14:46.529Z,74284
2015-07-20T00:14:58.875Z,74278
2015-07-20T00:15:11.203Z,74281
2015-07-20T00:15:23.547Z,74276
2015-07-20T00:15:35.891Z,74279
2015-07-20T00:15:48.250Z,74283
2015-07-20T00:16:00.595Z,74284
2015-07-20T00:16:12.251Z,74282
2015-07-20T00:16:24.610Z,74283
2015-07-20T00:16:36.985Z,74282
2015-07-20T00:16:49.345Z,74282
2015-07-20T00:17:01.737Z,74285
2015-07-20T00:17:14.097Z,74285
2015-07-20T00:17:26.472Z,74280
2015-07-20T00:17:38.815Z,74281
2015-07-20T00:17:51.144Z,74280
2015-07-20T00:18:03.475Z,74285
2015-07-20T00:18:15.818Z,74282
2015-07-20T00:18:28.147Z,74284
2015-07-20T00:18:39.787Z,74281
2015-07-20T00:18:52.115Z,74285
2015-07-20T00:19:04.476Z,74289
2015-07-20T00:19:16.819Z,74286
2015-07-20T00:19:29.148Z,74283
2015-07-20T00:19:41.491Z,74283
2015-07-20T00:19:53.835Z,74285
2015-07-20T00:20:06.181Z,74290
2015-07-20T00:20:18.525Z,74291
2015-07-20T00:20:30.868Z,74288
2015-07-20T00:20:43.212Z,74285
2015-07-20T00:20:54.821Z,74286
2015-07-20T00:21:07.199Z,74286
2015-07-20T00:21:19.528Z,74286
2015-07-20T00:21:31.871Z,74288
2015-07-20T00:21:44.215Z,74281
2015-07-20T00:21:56.574Z,74279
2015-07-20T00:22:08.950Z,74284
2015-07-20T00:22:21.325Z,74284
2015-07-20T00:22:33.685Z,74284
2015-07-20T00:22:46.044Z,74281
2015-07-20T00:22:58.404Z,74283
2015-07-20T00:23:10.750Z,74284
2015-07-20T00:23:23.094Z,74284
2015-07-20T00:23:35.422Z,74284
2015-07-20T00:23:47.766Z,74286
2015-07-20T00:24:00.094Z,74284
2015-07-20T00:24:12.440Z,74285
2015-07-20T00:24:24.768Z,74284
2015-07-20T00:24:37.112Z,74285
2015-07-20T00:24:49.455Z,74287
2015-07-20T00:25:01.799Z,74284
2015-07-20T00:25:14.144Z,74282
2015-07-20T00:25:26.488Z,74281
2015-07-20T00:25:38.831Z,74286
2015-07-20T00:25:51.160Z,74282
2015-07-20T00:26:03.519Z,74284
2015-07-20T00:26:15.850Z,74278
2015-07-20T00:26:28.194Z,74282
2015-07-20T00:26:40.522Z,74283
2015-07-20T00:26:52.866Z,74283
2015-07-20T00:27:04.491Z,74282
2015-07-20T00:27:16.836Z,74286
2015-07-20T00:27:29.461Z,74283
2015-07-20T00:27:41.836Z,74284
2015-07-20T00:27:54.196Z,74289
2015-07-20T00:28:06.555Z,74285
2015-07-20T00:28:18.916Z,74285
2015-07-20T00:28:31.291Z,74284
2015-07-20T00:28:43.650Z,74285
2015-07-20T00:28:55.994Z,74287
2015-07-20T00:29:08.322Z,74286
2015-07-20T00:29:19.246Z,74283
2015-07-20T00:29:31.574Z,74286
2015-07-20T00:29:43.918Z,74288
2015-07-20T00:29:56.261Z,74291
2015-07-20T00:30:08.605Z,74289
2015-07-20T00:30:20.951Z,74291
2015-07-20T00:30:33.279Z,74287
2015-07-20T00:30:45.623Z,74285
2015-07-20T00:30:57.982Z,74289
2015-07-20T00:31:09.607Z,74288
2015-07-20T00:31:21.937Z,74288
2015-07-20T00:31:34.265Z,74288
2015-07-20T00:31:46.609Z,74285
2015-07-20T00:31:58.937Z,74288
2015-07-20T00:32:11.281Z,74287
2015-07-20T00:32:23.643Z,74291
2015-07-20T00:32:35.987Z,74290
2015-07-20T00:32:48.331Z,74288
2015-07-20T00:33:00.690Z,74288
2015-07-20T00:33:13.050Z,74290
2015-07-20T00:33:25.410Z,74287
2015-07-20T00:33:37.769Z,74287
2015-07-20T00:33:50.144Z,74286
2015-07-20T00:34:02.519Z,74285
2015-07-20T00:34:14.879Z,74286
2015-07-20T00:34:27.224Z,74287
2015-07-20T00:34:39.553Z,74289
2015-07-20T00:34:51.896Z,74289
2015-07-20T00:35:04.224Z,74289
2015-07-20T00:35:16.599Z,74285
2015-07-20T00:35:28.227Z,74287
2015-07-20T00:35:40.556Z,74293
2015-07-20T00:35:52.899Z,74288
2015-07-20T00:36:05.259Z,74293
2015-07-20T00:36:17.602Z,74291
2015-07-20T00:36:29.947Z,74290
2015-07-20T00:36:42.291Z,74291
2015-07-20T00:36:54.619Z,74294
2015-07-20T00:37:06.963Z,74293
2015-07-20T00:37:19.291Z,74291
2015-07-20T00:37:31.621Z,74288
2015-07-20T00:37:43.965Z,74289
2015-07-20T00:37:56.324Z,74295
2015-07-20T00:38:08.668Z,74292
2015-07-20T00:38:21.027Z,74293
2015-07-20T00:38:33.404Z,74292
2015-07-20T00:38:45.764Z,74293
2015-07-20T00:38:58.139Z,74290
2015-07-20T00:39:10.514Z,74290
2015-07-20T00:39:22.873Z,74295
2015-07-20T00:39:35.250Z,74295
2015-07-20T00:39:47.609Z,74294
2015-07-20T00:39:59.984Z,74290
2015-07-20T00:40:12.313Z,74289
2015-07-20T00:40:24.643Z,74287
2015-07-20T00:40:36.986Z,74293
2015-07-20T00:40:49.330Z,74293
2015-07-20T00:41:01.658Z,74292
2015-07-20T00:41:14.002Z,74291
2015-07-20T00:41:26.347Z,74288
2015-07-20T00:41:38.675Z,74287
2015-07-20T00:41:51.019Z,74290
2015-07-20T00:42:03.362Z,74287
2015-07-20T00:42:15.706Z,74281
2015-07-20T00:42:28.069Z,74282
2015-07-20T00:42:39.709Z,74278
2015-07-20T00:42:52.053Z,74280
2015-07-20T00:43:04.397Z,74284
2015-07-20T00:43:16.740Z,74284
2015-07-20T00:43:28.367Z,74278
2015-07-20T00:43:40.742Z,74279
2015-07-20T00:43:53.086Z,74280
2015-07-20T00:44:05.430Z,74281
2015-07-20T00:44:17.789Z,74281
2015-07-20T00:44:30.151Z,74278
2015-07-20T00:44:42.526Z,74280
2015-07-20T00:44:54.885Z,74279
2015-07-20T00:45:07.244Z,74278
2015-07-20T00:45:19.619Z,74281
2015-07-20T00:45:31.980Z,74278
2015-07-20T00:45:44.324Z,74276
2015-07-20T00:45:56.652Z,74279
2015-07-20T00:46:08.995Z,74275
2015-07-20T00:46:21.339Z,74276
2015-07-20T00:46:33.670Z,74277
2015-07-20T00:46:45.998Z,74270
2015-07-20T00:46:58.342Z,74271
2015-07-20T00:47:10.686Z,74272
2015-07-20T00:47:23.014Z,74271
2015-07-20T00:47:35.359Z,74277
2015-07-20T00:47:47.687Z,74274
2015-07-20T00:48:00.031Z,74272
2015-07-20T00:48:12.374Z,74270
2015-07-20T00:48:24.265Z,74276
2015-07-20T00:48:36.612Z,74276
2015-07-20T00:48:48.940Z,74276
2015-07-20T00:49:01.284Z,74277
2015-07-20T00:49:13.643Z,74277
2015-07-20T00:49:26.002Z,74278
2015-07-20T00:49:37.645Z,74280
2015-07-20T00:49:50.004Z,74278
2015-07-20T00:50:02.379Z,74281
2015-07-20T00:50:14.739Z,74280
2015-07-20T00:50:27.114Z,74282
2015-07-20T00:50:39.491Z,74284
2015-07-20T00:50:51.850Z,74283
2015-07-20T00:51:04.225Z,74282
2015-07-20T00:51:16.569Z,74282
2015-07-20T00:51:28.897Z,74280
2015-07-20T00:51:41.243Z,74279
2015-07-20T00:51:53.571Z,74287
2015-07-20T00:52:05.915Z,74288
2015-07-20T00:52:18.258Z,74283
2015-07-20T00:52:30.618Z,74283
2015-07-20T00:52:42.964Z,74279
2015-07-20T00:52:55.307Z,74279
2015-07-20T00:53:07.635Z,74284
2015-07-20T00:53:19.979Z,74280
2015-07-20T00:53:32.323Z,74279
2015-07-20T00:53:44.669Z,74280
2015-07-20T00:53:57.012Z,74277
2015-07-20T00:54:09.356Z,74276
2015-07-20T00:54:21.684Z,74278
2015-07-20T00:54:34.044Z,74280
2015-07-20T00:54:46.232Z,74283
2015-07-20T00:54:58.592Z,74279
2015-07-20T00:55:10.935Z,74281
2015-07-20T00:55:23.310Z,74277
2015-07-20T00:55:35.685Z,74280
2015-07-20T00:55:48.048Z,74286
2015-07-20T00:56:00.407Z,74281
2015-07-20T00:56:12.782Z,74283
2015-07-20T00:56:25.157Z,74282
2015-07-20T00:56:37.516Z,74284
2015-07-20T00:56:49.878Z,74281
2015-07-20T00:57:02.222Z,74285
2015-07-20T00:57:14.565Z,74285
2015-07-20T00:57:26.909Z,74286
2015-07-20T00:57:39.237Z,74282
2015-07-20T00:57:51.598Z,74282
2015-07-20T00:58:03.926Z,74287
2015-07-20T00:58:16.269Z,74291
2015-07-20T00:58:28.613Z,74288
2015-07-20T00:58:40.957Z,74291
2015-07-20T00:58:53.303Z,74292
2015-07-20T00:59:05.646Z,74291
2015-07-20T00:59:17.990Z,74291
2015-07-20T00:59:30.334Z,74291
2015-07-20T00:59:42.678Z,74292
2015-07-20T00:59:55.024Z,74292
2015-07-20T01:00:07.353Z,74295
2015-07-20T01:00:19.696Z,74296
2015-07-20T01:00:32.056Z,74295
2015-07-20T01:00:44.384Z,74297
2015-07-20T01:00:56.729Z,74294
2015-07-20T01:01:09.104Z,74296
2015-07-20T01:01:21.463Z,74296
2015-07-20T01:01:33.822Z,74299
2015-07-20T01:01:46.182Z,74302
2015-07-20T01:01:58.559Z,74301
2015-07-20T01:02:10.949Z,74301
2015-07-20T01:02:23.309Z,74299
2015-07-20T01:02:35.668Z,74297
2015-07-20T01:02:48.012Z,74298
2015-07-20T01:03:00.358Z,74298
2015-07-20T01:03:12.686Z,74303
2015-07-20T01:03:25.014Z,74306
2015-07-20T01:03:37.373Z,74302
2015-07-20T01:03:49.701Z,74299
2015-07-20T01:04:02.047Z,74301
2015-07-20T01:04:14.375Z,74299
2015-07-20T01:04:26.719Z,74300
2015-07-20T01:04:39.063Z,74301
2015-07-20T01:04:51.391Z,74300
2015-07-20T01:05:03.737Z,74299
2015-07-20T01:05:16.096Z,74297
2015-07-20T01:05:28.424Z,74295
2015-07-20T01:05:40.768Z,74296
2015-07-20T01:05:53.096Z,74294
2015-07-20T01:06:04.754Z,74298
2015-07-20T01:06:17.098Z,74296
2015-07-20T01:06:29.442Z,74296
2015-07-20T01:06:41.817Z,74294
2015-07-20T01:06:54.192Z,74291
2015-07-20T01:07:06.569Z,74291
2015-07-20T01:07:18.928Z,74292
2015-07-20T01:07:31.287Z,74293
2015-07-20T01:07:43.647Z,74292
2015-07-20T01:07:56.022Z,74292
2015-07-20T01:08:08.399Z,74293
2015-07-20T01:08:20.743Z,74292
2015-07-20T01:08:33.071Z,74287
2015-07-20T01:08:45.399Z,74292
2015-07-20T01:08:57.024Z,74292
2015-07-20T01:09:09.369Z,74292
2015-07-20T01:09:21.712Z,74290
2015-07-20T01:09:34.040Z,74292
2015-07-20T01:09:46.369Z,74297
2015-07-20T01:09:58.697Z,74294
2015-07-20T01:10:11.028Z,74295
2015-07-20T01:10:23.387Z,74296
2015-07-20T01:10:35.700Z,74291
2015-07-20T01:10:48.043Z,74292
2015-07-20T01:11:00.387Z,74294
2015-07-20T01:11:12.717Z,74292
2015-07-20T01:11:25.061Z,74292
2015-07-20T01:11:37.405Z,74294
2015-07-20T01:11:49.749Z,74294
2015-07-20T01:12:02.108Z,74292
2015-07-20T01:12:14.719Z,74291
2015-07-20T01:12:27.094Z,74292
2015-07-20T01:12:39.469Z,74292
2015-07-20T01:12:51.844Z,74292
2015-07-20T01:13:04.204Z,74293
2015-07-20T01:13:16.565Z,74292
2015-07-20T01:13:28.924Z,74290
2015-07-20T01:13:41.299Z,74288
2015-07-20T01:13:53.659Z,74286
2015-07-20T01:14:06.003Z,74288
2015-07-20T01:14:18.348Z,74289
2015-07-20T01:14:30.692Z,74287
2015-07-20T01:14:43.020Z,74289
2015-07-20T01:14:55.364Z,74284
2015-07-20T01:15:07.692Z,74288
2015-07-20T01:15:20.037Z,74284
2015-07-20T01:15:32.365Z,74290
2015-07-20T01:15:44.709Z,74286
2015-07-20T01:15:57.052Z,74290
2015-07-20T01:16:09.396Z,74288
2015-07-20T01:16:21.742Z,74286
2015-07-20T01:16:34.101Z,74285
2015-07-20T01:16:46.445Z,74287
2015-07-20T01:16:58.773Z,74287
2015-07-20T01:17:11.117Z,74288
2015-07-20T01:17:23.478Z,74288
2015-07-20T01:17:35.822Z,74289
2015-07-20T01:17:48.166Z,74291
2015-07-20T01:18:00.510Z,74293
2015-07-20T01:18:12.885Z,74295
2015-07-20T01:18:25.247Z,74293
2015-07-20T01:18:37.606Z,74294
2015-07-20T01:18:49.966Z,74290
2015-07-20T01:19:02.356Z,74288
2015-07-20T01:19:14.702Z,74291
2015-07-20T01:19:27.030Z,74289
2015-07-20T01:19:39.374Z,74289
2015-07-20T01:19:51.718Z,74289
2015-07-20T01:20:04.061Z,74289
2015-07-20T01:20:16.407Z,74285
2015-07-20T01:20:28.751Z,74287
2015-07-20T01:20:41.079Z,74285
2015-07-20T01:20:53.423Z,74290
2015-07-20T01:21:05.751Z,74290
2015-07-20T01:21:18.097Z,74288
2015-07-20T01:21:30.440Z,74285
2015-07-20T01:21:42.065Z,74283
2015-07-20T01:21:54.409Z,74286
2015-07-20T01:22:06.737Z,74286
2015-07-20T01:22:19.082Z,74283
2015-07-20T01:22:31.426Z,74286
2015-07-20T01:22:43.785Z,74282
2015-07-20T01:22:56.145Z,74280
2015-07-20T01:23:08.488Z,74280
2015-07-20T01:23:20.866Z,74283
2015-07-20T01:23:33.241Z,74281
2015-07-20T01:23:45.616Z,74283
2015-07-20T01:23:57.976Z,74281
2015-07-20T01:24:10.335Z,74278
2015-07-20T01:24:22.712Z,74281
2015-07-20T01:24:35.071Z,74282
2015-07-20T01:24:47.431Z,74280
2015-07-20T01:24:59.790Z,74282
2015-07-20T01:25:12.134Z,74284
2015-07-20T01:25:24.463Z,74285
2015-07-20T01:25:36.104Z,74284
2015-07-20T01:25:48.432Z,74284
2015-07-20T01:26:00.776Z,74288
2015-07-20T01:26:12.401Z,74289
2015-07-20T01:26:24.747Z,74288
2015-07-20T01:26:37.091Z,74288
2015-07-20T01:26:49.435Z,74283
2015-07-20T01:27:01.779Z,74285
2015-07-20T01:27:14.107Z,74287
2015-07-20T01:27:26.467Z,74288
2015-07-20T01:27:38.092Z,74287
2015-07-20T01:27:50.451Z,74284
2015-07-20T01:28:02.795Z,74281
2015-07-20T01:28:15.139Z,74285
2015-07-20T01:28:27.485Z,74285
2015-07-20T01:28:39.844Z,74286
2015-07-20T01:28:52.172Z,74283
2015-07-20T01:29:04.532Z,74285
2015-07-20T01:29:16.891Z,74286
2015-07-20T01:29:29.253Z,74282
2015-07-20T01:29:41.613Z,74283
2015-07-20T01:29:54.003Z,74284
2015-07-20T01:30:05.660Z,74281
2015-07-20T01:30:18.003Z,74279
2015-07-20T01:30:30.349Z,74277
2015-07-20T01:30:42.693Z,74276
2015-07-20T01:30:55.021Z,74273
2015-07-20T01:31:07.365Z,74269
2015-07-20T01:31:19.708Z,74270
2015-07-20T01:31:32.038Z,74267
2015-07-20T01:31:44.381Z,74263
2015-07-20T01:31:56.709Z,74257
2015-07-20T01:32:09.053Z,74255
2015-07-20T01:32:21.381Z,74253
2015-07-20T01:32:33.727Z,74252
2015-07-20T01:32:46.055Z,74251
2015-07-20T01:32:58.399Z,74248
2015-07-20T01:33:10.758Z,74247
2015-07-20T01:33:23.086Z,74247
2015-07-20T01:33:35.417Z,74249
2015-07-20T01:33:47.760Z,74246
2015-07-20T01:34:00.104Z,74246
2015-07-20T01:34:12.463Z,74248
2015-07-20T01:34:24.807Z,74249
2015-07-20T01:34:37.169Z,74246
2015-07-20T01:34:49.528Z,74250
2015-07-20T01:35:01.903Z,74245
2015-07-20T01:35:14.262Z,74245
2015-07-20T01:35:26.622Z,74252
2015-07-20T01:35:38.983Z,74250
2015-07-20T01:35:51.327Z,74247
2015-07-20T01:36:03.671Z,74250
2015-07-20T01:36:15.999Z,74253
2015-07-20T01:36:28.342Z,74256
2015-07-20T01:36:40.687Z,74260
2015-07-20T01:36:53.031Z,74257
2015-07-20T01:37:05.359Z,74258
2015-07-20T01:37:17.703Z,74261
2015-07-20T01:37:30.047Z,74268
2015-07-20T01:37:42.378Z,74268
2015-07-20T01:37:54.721Z,74263
2015-07-20T01:38:07.050Z,74263
2015-07-20T01:38:19.378Z,74258
2015-07-20T01:38:31.721Z,74265
2015-07-20T01:38:44.052Z,74265
2015-07-20T01:38:56.395Z,74269
2015-07-20T01:39:08.739Z,74262
2015-07-20T01:39:21.083Z,74266
2015-07-20T01:39:33.442Z,74272
2015-07-20T01:39:45.788Z,74275
2015-07-20T01:39:58.132Z,74278
2015-07-20T01:40:10.507Z,74277
2015-07-20T01:40:22.897Z,74273
2015-07-20T01:40:35.257Z,74275
2015-07-20T01:40:47.618Z,74278
2015-07-20T01:40:59.993Z,74276
2015-07-20T01:41:12.368Z,74275
2015-07-20T01:41:24.759Z,74273
2015-07-20T01:41:37.087Z,74275
2015-07-20T01:41:49.432Z,74270
2015-07-20T01:42:01.775Z,74270
2015-07-20T01:42:14.103Z,74274
2015-07-20T01:42:26.447Z,74271
2015-07-20T01:42:38.775Z,74271
2015-07-20T01:42:51.106Z,74273
2015-07-20T01:43:03.450Z,74275
2015-07-20T01:43:15.778Z,74276
2015-07-20T01:43:28.122Z,74275
2015-07-20T01:43:40.466Z,74276
2015-07-20T01:43:52.796Z,74273
2015-07-20T01:44:05.140Z,74278
2015-07-20T01:44:17.468Z,74276
2015-07-20T01:44:29.812Z,74275
2015-07-20T01:44:42.155Z,74275
2015-07-20T01:44:56.689Z,74277
2015-07-20T01:45:09.251Z,74279
2015-07-20T01:45:21.610Z,74280
2015-07-20T01:45:33.970Z,74276
2015-07-20T01:45:46.423Z,74277
2015-07-20T01:45:58.986Z,74277
2015-07-20T01:46:12.268Z,74277
2015-07-20T01:46:24.830Z,74277
2015-07-20T01:46:36.940Z,74271
2015-07-20T01:46:49.283Z,74269
2015-07-20T01:47:01.614Z,74269
2015-07-20T01:47:13.958Z,74267
2015-07-20T01:47:26.552Z,74266
2015-07-20T01:47:39.505Z,74264
2015-07-20T01:47:52.459Z,74261
2015-07-20T01:48:07.115Z,74266
2015-07-20T01:48:19.756Z,74263
2015-07-20T01:48:32.209Z,74265
2015-07-20T01:48:44.740Z,74267
2015-07-20T01:48:58.306Z,74266
2015-07-20T01:49:10.697Z,74265
2015-07-20T01:49:23.056Z,74264
2015-07-20T01:49:35.447Z,74267
2015-07-20T01:49:48.618Z,74269
2015-07-20T01:50:01.369Z,74271
2015-07-20T01:50:14.026Z,74270
2015-07-20T01:50:26.651Z,74271
2015-07-20T01:50:38.651Z,74271
2015-07-20T01:50:51.088Z,74272
2015-07-20T01:51:03.528Z,74274
2015-07-20T01:51:15.934Z,74273
2015-07-20T01:51:28.371Z,74274
2015-07-20T01:51:40.778Z,74270
2015-07-20T01:51:53.434Z,74268
2015-07-20T01:52:05.781Z,74270
2015-07-20T01:52:18.124Z,74267
2015-07-20T01:52:30.453Z,74266
2015-07-20T01:52:42.796Z,74266
2015-07-20T01:52:55.171Z,74271
2015-07-20T01:53:07.500Z,74270
2015-07-20T01:53:19.844Z,74270
2015-07-20T01:53:32.188Z,74272
2015-07-20T01:53:44.532Z,74274
2015-07-20T01:53:56.907Z,74271
2015-07-20T01:54:09.252Z,74273
2015-07-20T01:54:21.581Z,74272
2015-07-20T01:54:33.956Z,74275
2015-07-20T01:54:46.581Z,74273
2015-07-20T01:54:58.190Z,74270
2015-07-20T01:55:10.537Z,74270
2015-07-20T01:55:22.896Z,74273
2015-07-20T01:55:35.287Z,74274
2015-07-20T01:55:47.646Z,74272
2015-07-20T01:55:59.287Z,74272
2015-07-20T01:56:11.647Z,74272
2015-07-20T01:56:24.022Z,74273
2015-07-20T01:56:36.397Z,74270
2015-07-20T01:56:48.788Z,74272
2015-07-20T01:57:01.225Z,74273
2015-07-20T01:57:13.587Z,74274
2015-07-20T01:57:25.977Z,74274
2015-07-20T01:57:38.383Z,74275
2015-07-20T01:57:50.758Z,74278
2015-07-20T01:58:03.104Z,74275
2015-07-20T01:58:15.448Z,74275
2015-07-20T01:58:27.784Z,74271
2015-07-20T01:58:40.128Z,74273
2015-07-20T01:58:52.471Z,74276
2015-07-20T01:59:04.817Z,74277
2015-07-20T01:59:17.161Z,74278
2015-07-20T01:59:29.505Z,74279
2015-07-20T01:59:41.864Z,74280
2015-07-20T01:59:54.208Z,74280
2015-07-20T02:00:06.569Z,74283
2015-07-20T02:00:18.929Z,74282
2015-07-20T02:00:30.554Z,74280
2015-07-20T02:00:42.913Z,74280
2015-07-20T02:00:54.538Z,74282
2015-07-20T02:01:06.884Z,74285
2015-07-20T02:01:19.227Z,74283
2015-07-20T02:01:31.587Z,74284
2015-07-20T02:01:43.946Z,74281
2015-07-20T02:01:56.290Z,74283
2015-07-20T02:02:08.667Z,74281
2015-07-20T02:02:21.026Z,74278
2015-07-20T02:02:33.433Z,74280
2015-07-20T02:02:45.808Z,74279
2015-07-20T02:02:58.198Z,74276
2015-07-20T02:03:10.590Z,74280
2015-07-20T02:03:22.965Z,74276
2015-07-20T02:03:35.293Z,74276
2015-07-20T02:03:47.652Z,74273
2015-07-20T02:03:59.996Z,74271
2015-07-20T02:04:12.326Z,74275
2015-07-20T02:04:24.686Z,74272
2015-07-20T02:04:37.047Z,74272
2015-07-20T02:04:49.391Z,74275
2015-07-20T02:05:01.734Z,74276
2015-07-20T02:05:14.097Z,74273
2015-07-20T02:05:26.456Z,74276
2015-07-20T02:05:38.800Z,74277
2015-07-20T02:05:51.237Z,74282
2015-07-20T02:06:03.440Z,74282
2015-07-20T02:06:15.817Z,74278
2015-07-20T02:06:28.161Z,74275
2015-07-20T02:06:40.505Z,74279
2015-07-20T02:06:52.849Z,74275
2015-07-20T02:07:05.208Z,74279
2015-07-20T02:07:17.554Z,74276
2015-07-20T02:07:29.898Z,74277
2015-07-20T02:07:42.273Z,74279
2015-07-20T02:07:54.632Z,74274
2015-07-20T02:08:07.007Z,74274
2015-07-20T02:08:19.384Z,74275
2015-07-20T02:08:31.743Z,74279
2015-07-20T02:08:44.150Z,74276
2015-07-20T02:08:56.556Z,74273
2015-07-20T02:09:08.884Z,74275
2015-07-20T02:09:21.230Z,74267
2015-07-20T02:09:33.573Z,74266
2015-07-20T02:09:45.933Z,74264
2015-07-20T02:09:57.573Z,74263
2015-07-20T02:10:09.917Z,74263
2015-07-20T02:10:22.247Z,74257
2015-07-20T02:10:34.607Z,74253
2015-07-20T02:10:46.950Z,74251
2015-07-20T02:10:59.294Z,74253
2015-07-20T02:11:11.654Z,74250
2015-07-20T02:11:23.999Z,74250
2015-07-20T02:11:36.359Z,74248
2015-07-20T02:11:48.702Z,74248
2015-07-20T02:12:01.046Z,74250
2015-07-20T02:12:13.390Z,74247
2015-07-20T02:12:25.720Z,74246
2015-07-20T02:12:38.111Z,74244
2015-07-20T02:12:50.470Z,74242
2015-07-20T02:13:02.845Z,74242
2015-07-20T02:13:15.204Z,74245
2015-07-20T02:13:27.613Z,74247
2015-07-20T02:13:39.988Z,74247
2015-07-20T02:13:52.363Z,74246
2015-07-20T02:14:04.738Z,74243
2015-07-20T02:14:17.175Z,74240
2015-07-20T02:14:29.551Z,74242
2015-07-20T02:14:41.926Z,74238
2015-07-20T02:14:54.536Z,74243
2015-07-20T02:15:06.879Z,74240
2015-07-20T02:15:19.223Z,74239
2015-07-20T02:15:31.570Z,74236
2015-07-20T02:15:43.929Z,74232
2015-07-20T02:15:56.289Z,74231
2015-07-20T02:16:08.617Z,74234
2015-07-20T02:16:20.960Z,74231
2015-07-20T02:16:33.291Z,74228
2015-07-20T02:16:45.634Z,74232
2015-07-20T02:16:57.962Z,74231
2015-07-20T02:17:10.306Z,74226
2015-07-20T02:17:22.650Z,74229
2015-07-20T02:17:34.979Z,74231
2015-07-20T02:17:47.323Z,74233
2015-07-20T02:17:59.667Z,74230
2015-07-20T02:18:12.010Z,74228
2015-07-20T02:18:24.354Z,74231
2015-07-20T02:18:36.700Z,74236
2015-07-20T02:18:49.044Z,74239
2015-07-20T02:19:01.403Z,74242
2015-07-20T02:19:13.794Z,74244
2015-07-20T02:19:26.153Z,74249
2015-07-20T02:19:38.514Z,74250
2015-07-20T02:19:50.874Z,74258
2015-07-20T02:20:03.249Z,74264
2015-07-20T02:20:15.624Z,74263
2015-07-20T02:20:27.983Z,74263
2015-07-20T02:20:40.345Z,74267
2015-07-20T02:20:52.674Z,74270
2015-07-20T02:21:05.017Z,74270
2015-07-20T02:21:17.361Z,74271
2015-07-20T02:21:29.689Z,74273
2015-07-20T02:21:42.023Z,74275
2015-07-20T02:21:54.367Z,74278
2015-07-20T02:22:06.695Z,74278
2015-07-20T02:22:19.039Z,74280
2015-07-20T02:22:31.383Z,74282
2015-07-20T02:22:43.010Z,74283
2015-07-20T02:22:55.353Z,74281
2015-07-20T02:23:07.697Z,74282
2015-07-20T02:23:20.041Z,74282
2015-07-20T02:23:32.385Z,74281
2015-07-20T02:23:44.715Z,74283
2015-07-20T02:23:57.043Z,74282
2015-07-20T02:24:09.387Z,74282
2015-07-20T02:24:21.746Z,74280
2015-07-20T02:24:34.076Z,74283
2015-07-20T02:24:46.435Z,74281
2015-07-20T02:24:58.810Z,74279
2015-07-20T02:25:11.185Z,74273
2015-07-20T02:25:23.545Z,74272
2015-07-20T02:25:35.906Z,74271
2015-07-20T02:25:48.281Z,74274
2015-07-20T02:26:00.672Z,74272
2015-07-20T02:26:12.297Z,74270
2015-07-20T02:26:24.625Z,74264
2015-07-20T02:26:36.955Z,74261
2015-07-20T02:26:49.299Z,74260
2015-07-20T02:27:01.627Z,74257
2015-07-20T02:27:13.971Z,74253
2015-07-20T02:27:26.314Z,74256
2015-07-20T02:27:38.676Z,74253
2015-07-20T02:27:51.020Z,74253
2015-07-20T02:28:03.363Z,74255
2015-07-20T02:28:15.691Z,74253
2015-07-20T02:28:28.035Z,74250
2015-07-20T02:28:40.365Z,74248
2015-07-20T02:28:52.725Z,74249
2015-07-20T02:29:05.068Z,74247
2015-07-20T02:29:17.412Z,74248
2015-07-20T02:29:29.740Z,74248
2015-07-20T02:29:42.117Z,74250
2015-07-20T02:29:54.461Z,74252
2015-07-20T02:30:06.805Z,74255
2015-07-20T02:30:19.164Z,74252
2015-07-20T02:30:30.852Z,74253
2015-07-20T02:30:43.213Z,74254
2015-07-20T02:30:55.588Z,74258
2015-07-20T02:31:07.947Z,74257
2015-07-20T02:31:20.307Z,74260
2015-07-20T02:31:32.682Z,74261
2015-07-20T02:31:45.043Z,74261
2015-07-20T02:31:57.371Z,74263
2015-07-20T02:32:09.715Z,74262
2015-07-20T02:32:22.059Z,74266
2015-07-20T02:32:34.403Z,74267
2015-07-20T02:32:46.747Z,74267
2015-07-20T02:32:59.091Z,74267
2015-07-20T02:33:11.419Z,74266
2015-07-20T02:33:23.763Z,74264
2015-07-20T02:33:36.107Z,74264
2015-07-20T02:33:48.438Z,74258
2015-07-20T02:34:00.766Z,74258
2015-07-20T02:34:13.375Z,74261
2015-07-20T02:34:25.719Z,74260
2015-07-20T02:34:38.063Z,74258
2015-07-20T02:34:50.424Z,74258
2015-07-20T02:35:02.768Z,74256
2015-07-20T02:35:15.127Z,74255
2015-07-20T02:35:27.471Z,74256
2015-07-20T02:35:39.830Z,74258
2015-07-20T02:35:52.192Z,74260
2015-07-20T02:36:04.567Z,74260
2015-07-20T02:36:16.926Z,74259
2015-07-20T02:36:29.301Z,74257
2015-07-20T02:36:41.692Z,74253
2015-07-20T02:36:54.068Z,74256
2015-07-20T02:37:06.427Z,74251
2015-07-20T02:37:18.802Z,74250
2015-07-20T02:37:31.130Z,74249
2015-07-20T02:37:43.474Z,74252
2015-07-20T02:37:55.805Z,74248
2015-07-20T02:38:08.149Z,74246
2015-07-20T02:38:20.493Z,74244
2015-07-20T02:38:32.852Z,74244
2015-07-20T02:38:45.180Z,74243
2015-07-20T02:38:57.525Z,74249